Flight Track Log - Related Links

Times and Time Zones

All times are in EDT time to prevent confusion due to time zone crossing. See the SWA1718 flight status page for this flight to view local times or setup timezone preferences in your user account.

Time Position Orientation Groundspeed Altitude Reporting Facility
EDT Latitude Longitude Course Direction KTS MPH feet Rate Location/Type
Thu 05:29:26 PM 35.3061 -101.8072 349° North 262 302 8,700  Level Albuquerque Center
Thu 05:30:28 PM 35.3881 -101.8456 339° North 306 352 10,600 2,129 Climbing Albuquerque Center
Thu 05:31:30 PM 35.4792 -101.8850 341° North 335 386 13,100 2,112 Climbing Albuquerque Center
Thu 05:32:33 PM 35.5733 -101.9256 341° North 351 404 15,000 2,064 Climbing Albuquerque Center
Thu 05:33:00 PM 35.8097 -101.9672 342° North  Level FlightAware Approximate
Thu 05:33:35 PM 35.6728 -101.9644 342° North 369 425 17,400  Level Albuquerque Center
Thu 05:34:37 PM 35.7792 -101.9917 348° North 385 443 19,300 1,742 Climbing Albuquerque Center
Thu 05:35:39 PM 35.8856 -102.0161 349° North 389 448 21,000 1,935 Climbing Albuquerque Center
Thu 05:36:41 PM 36.0164 -102.0453 350° North 395 455 23,300 1,742 Climbing Albuquerque Center
Thu 05:37:43 PM 36.1272 -102.0700 350° North 401 461 24,600 1,161 Climbing Albuquerque Center
Thu 05:38:45 PM 36.2342 -102.1122 342° North 400 460 25,700 1,113 Climbing Albuquerque Center
Thu 05:39:47 PM 36.3397 -102.1678 337° Northwest 408 470 26,900 1,161 Climbing Albuquerque Center
Thu 05:40:49 PM 36.4475 -102.2228 338° Northwest 415 478 28,100 1,113 Climbing Albuquerque Center
Thu 05:41:51 PM 36.5558 -102.2781 338° Northwest 421 484 29,200 1,355 Climbing Albuquerque Center
Thu 05:42:53 PM 36.6856 -102.3458 337° Northwest 420 483 30,900 1,258 Climbing Albuquerque Center
Thu 05:43:55 PM 36.7925 -102.4006 338° Northwest 418 481 31,800 1,210 Climbing Albuquerque Center
Thu 05:44:57 PM 36.9064 -102.4594 338° Northwest 423 487 33,400 1,073 Climbing Albuquerque Center
Thu 05:45:58 PM 37.0072 -102.5119 337° Northwest 414 476 34,000 293 Climbing Albuquerque Center
Thu 05:47:00 PM 37.1200 -102.5714 337° Northwest 406 467 34,000  Level Albuquerque Center
Thu 05:48:02 PM 37.2225 -102.6250 337° Northwest 413 475 34,000  Level Albuquerque Center
Thu 05:49:04 PM 37.3433 -102.6889 337° Northwest 420 483 34,000  Level Albuquerque Center
Thu 05:50:06 PM 37.4492 -102.7444 337° Northwest 426 490 34,000  Level Albuquerque Center
Thu 05:50:59 PM 37.5572 -102.7933 340° North 431 496 34,000  Level Denver Center
Thu 05:52:01 PM 37.6717 -102.8292 346° North 441 507 34,000  Level Denver Center
Thu 05:53:03 PM 37.8056 -102.8714 346° North 445 512 34,000  Level Denver Center
Thu 05:54:05 PM 37.9208 -102.9064 347° North 445 512 34,000  Level Denver Center
Thu 05:55:07 PM 38.0422 -102.9447 346° North 443 510 34,000  Level Denver Center
Thu 05:56:09 PM 38.1733 -102.9872 346° North 436 502 34,000 -387 Level Denver Center
Thu 05:57:11 PM 38.2850 -103.0214 346° North 431 496 33,200 -871 Descending Denver Center
Thu 05:58:13 PM 38.4003 -103.0964 333° Northwest 423 487 32,200 -919 Descending Denver Center
Thu 05:59:15 PM 38.4781 -103.1903 317° Northwest 406 467 31,300 -968 Descending Denver Center
Thu 06:00:17 PM 38.5756 -103.3017 318° Northwest 417 480 30,200 -629 Descending Denver Center
Thu 06:01:19 PM 38.6589 -103.4019 317° Northwest 402 463 30,000 -194 Descending Denver Center
Thu 06:02:21 PM 38.7319 -103.4900 317° Northwest 383 441 29,800 -532 Descending Denver Center
Thu 06:03:23 PM 38.8228 -103.5961 318° Northwest 392 451 28,900 -920 Descending Denver Center
Thu 06:04:38 PM 38.9156 -103.7064 317° Northwest 405 466 27,700 -1,051 Descending Denver Center
Thu 06:05:40 PM 39.0042 -103.8150 316° Northwest 395 455 26,500 -1,113 Descending Denver Center
Thu 06:06:42 PM 39.0817 -103.9094 317° Northwest 374 430 25,400 -1,016 Descending Denver Center
Thu 06:07:44 PM 39.1578 -104.0000 317° Northwest 365 420 24,400 -1,548 Descending Denver Center
Thu 06:08:46 PM 39.2308 -104.0869 317° Northwest 369 425 22,200 -1,694 Descending Denver Center
Thu 06:09:48 PM 39.3219 -104.1756 323° Northwest 357 411 20,900 -1,597 Descending Denver Center
Thu 06:10:50 PM 39.3989 -104.2422 326° Northwest 335 386 18,900 -1,887 Descending Denver Center
Thu 06:11:52 PM 39.4828 -104.3069 329° Northwest 327 376 17,000 -919 Descending Denver Center
Thu 06:12:54 PM 39.5500 -104.3650 326° Northwest 293 337 17,000 -339 Level Denver Center
Thu 06:13:56 PM 39.6253 -104.4236 329° Northwest 293 337 16,300 -968 Descending Denver Center
Thu 06:14:58 PM 39.6914 -104.4789 327° Northwest 286 329 15,000 -1,403 Descending Denver Center
Thu 06:16:00 PM 39.7636 -104.5247 334° Northwest 271 312 13,400 -1,452 Descending Denver Center
Thu 06:17:02 PM 39.8381 -104.5231 North 271 312 12,000 -1,065 Descending Denver Center
Thu 06:18:04 PM 39.9161 -104.5228 360° North 264 304 11,200 -871 Descending Denver Center
Thu 06:19:06 PM 39.9875 -104.5200 North 258 297 10,200 -1,306 Descending Denver Center
Thu 06:20:08 PM 40.0561 -104.5461 344° North 245 282 8,500 -1,091 Descending Denver Center
Thu 06:21:07 PM 40.0500 -104.6167 264° West 221 254 8,000 -706 Descending Denver TRACON
Thu 06:22:07 PM 40.0167 -104.6667 229° Southwest 194 223 7,100 -661 Descending Denver TRACON
Thu 06:23:14 PM 39.9606 -104.6869 195° South 189 217 6,600 -605 Descending Denver Center
Thu 06:24:16 PM 39.9142 -104.6867 180° South 156 180 5,800 -581 Descending Denver Center
Thu 06:25:18 PM 39.8772 -104.6872 181° South 150 173 5,400 -387 Descending Denver Center
Thu 06:27:00 PM 39.8617 -104.6732 218° Southwest  Level Estimated
Thu 06:34:00 PM 39.8617 -104.6732 218° Southwest  Level Estimated
Thu 06:35:00 PM 39.8617 -104.6732 218° Southwest  Level Estimated

Login

Don't have an account? Register now (free) for customized features, flight alerts, and more!